sensor_id;sensor_type;location;lat;lon;timestamp;pressure;altitude;pressure_sealevel;temperature;humidity
50732;BME280;36700;50.488;2.544;2023-07-29T00:01:03;100416.97;;;20.84;64.70
50732;BME280;36700;50.488;2.544;2023-07-29T00:03:29;100416.97;;;20.84;64.54
50732;BME280;36700;50.488;2.544;2023-07-29T00:05:56;100407.06;;;20.83;64.73
50732;BME280;36700;50.488;2.544;2023-07-29T00:08:22;100413.63;;;20.82;64.49
50732;BME280;36700;50.488;2.544;2023-07-29T00:10:48;100414.47;;;20.83;64.44
50732;BME280;36700;50.488;2.544;2023-07-29T00:13:13;100415.25;;;20.83;64.46
50732;BME280;36700;50.488;2.544;2023-07-29T00:15:39;100408.16;;;20.82;64.59
50732;BME280;36700;50.488;2.544;2023-07-29T00:18:05;100403.53;;;20.83;64.61
50732;BME280;36700;50.488;2.544;2023-07-29T00:20:31;100410.38;;;20.80;64.38
50732;BME280;36700;50.488;2.544;2023-07-29T00:22:57;100409.53;;;20.80;64.80
50732;BME280;36700;50.488;2.544;2023-07-29T00:25:24;100408.75;;;20.79;64.74
50732;BME280;36700;50.488;2.544;2023-07-29T00:27:50;100409.84;;;20.78;64.88
50732;BME280;36700;50.488;2.544;2023-07-29T00:30:16;100414.19;;;20.79;64.47
50732;BME280;36700;50.488;2.544;2023-07-29T00:32:42;100414.19;;;20.79;64.81
50732;BME280;36700;50.488;2.544;2023-07-29T00:35:08;100424.31;;;20.79;64.47
50732;BME280;36700;50.488;2.544;2023-07-29T00:37:34;100407.91;;;20.79;64.87
50732;BME280;36700;50.488;2.544;2023-07-29T00:40:00;100415.31;;;20.78;64.48
50732;BME280;36700;50.488;2.544;2023-07-29T00:42:26;100409.00;;;20.78;64.71
50732;BME280;36700;50.488;2.544;2023-07-29T00:44:52;100404.91;;;20.80;64.59
50732;BME280;36700;50.488;2.544;2023-07-29T00:47:18;100406.00;;;20.79;64.58
50732;BME280;36700;50.488;2.544;2023-07-29T00:49:45;100402.44;;;20.79;64.46
50732;BME280;36700;50.488;2.544;2023-07-29T00:52:12;100407.63;;;20.80;64.73
50732;BME280;36700;50.488;2.544;2023-07-29T00:54:39;100412.00;;;20.81;64.58
50732;BME280;36700;50.488;2.544;2023-07-29T00:57:07;100415.84;;;20.80;64.70
50732;BME280;36700;50.488;2.544;2023-07-29T00:59:35;100410.91;;;20.77;64.66
50732;BME280;36700;50.488;2.544;2023-07-29T01:02:01;100405.44;;;20.77;64.31
50732;BME280;36700;50.488;2.544;2023-07-29T01:04:27;100404.09;;;20.75;64.32
50732;BME280;36700;50.488;2.544;2023-07-29T01:07:02;100413.66;;;20.77;64.39
50732;BME280;36700;50.488;2.544;2023-07-29T01:12:42;100416.94;;;20.74;64.39
50732;BME280;36700;50.488;2.544;2023-07-29T01:17:55;100427.31;;;20.72;64.52
50732;BME280;36700;50.488;2.544;2023-07-29T01:20:24;100424.56;;;20.72;64.72
50732;BME280;36700;50.488;2.544;2023-07-29T01:22:50;100423.22;;;20.75;64.87
50732;BME280;36700;50.488;2.544;2023-07-29T01:25:17;100427.03;;;20.74;64.40
50732;BME280;36700;50.488;2.544;2023-07-29T01:27:46;100428.97;;;20.73;64.77
50732;BME280;36700;50.488;2.544;2023-07-29T01:30:12;100428.97;;;20.73;64.30
50732;BME280;36700;50.488;2.544;2023-07-29T01:32:43;100424.88;;;20.70;64.66
50732;BME280;36700;50.488;2.544;2023-07-29T01:35:34;100430.88;;;20.72;64.64
50732;BME280;36700;50.488;2.544;2023-07-29T01:38:05;100428.41;;;20.71;64.46
50732;BME280;36700;50.488;2.544;2023-07-29T01:40:33;100421.84;;;20.72;64.24
50732;BME280;36700;50.488;2.544;2023-07-29T01:42:59;100419.69;;;20.69;64.74
50732;BME280;36700;50.488;2.544;2023-07-29T01:45:25;100395.38;;;20.67;64.83
50732;BME280;36700;50.488;2.544;2023-07-29T01:47:51;100395.38;;;20.67;64.49
50732;BME280;36700;50.488;2.544;2023-07-29T01:50:18;100405.75;;;20.65;64.39
50732;BME280;36700;50.488;2.544;2023-07-29T01:52:44;100406.88;;;20.64;64.50
50732;BME280;36700;50.488;2.544;2023-07-29T01:55:09;100406.03;;;20.64;64.76
50732;BME280;36700;50.488;2.544;2023-07-29T01:57:35;100403.56;;;20.62;64.55
50732;BME280;36700;50.488;2.544;2023-07-29T02:00:02;100407.41;;;20.61;64.65
50732;BME280;36700;50.488;2.544;2023-07-29T02:02:29;100403.03;;;20.60;64.91
50732;BME280;36700;50.488;2.544;2023-07-29T02:04:55;100391.00;;;20.61;64.63
50732;BME280;36700;50.488;2.544;2023-07-29T02:07:21;100390.22;;;20.61;64.63
50732;BME280;36700;50.488;2.544;2023-07-29T02:09:47;100392.38;;;20.58;64.51
50732;BME280;36700;50.488;2.544;2023-07-29T02:12:13;100398.94;;;20.57;64.51
50732;BME280;36700;50.488;2.544;2023-07-29T02:14:39;100411.81;;;20.57;65.18
50732;BME280;36700;50.488;2.544;2023-07-29T02:17:05;100410.44;;;20.54;64.89
50732;BME280;36700;50.488;2.544;2023-07-29T02:19:31;100409.34;;;20.55;64.61
50732;BME280;36700;50.488;2.544;2023-07-29T02:21:57;100401.13;;;20.55;65.04
50732;BME280;36700;50.488;2.544;2023-07-29T02:24:23;100408.50;;;20.55;64.55
50732;BME280;36700;50.488;2.544;2023-07-29T02:26:48;100409.34;;;20.55;64.85
50732;BME280;36700;50.488;2.544;2023-07-29T02:29:14;100412.88;;;20.56;64.95
50732;BME280;36700;50.488;2.544;2023-07-29T02:31:40;100398.16;;;20.52;64.48
50732;BME280;36700;50.488;2.544;2023-07-29T02:34:06;100406.34;;;20.52;64.51
50732;BME280;36700;50.488;2.544;2023-07-29T02:36:32;100403.59;;;20.52;64.99
50732;BME280;36700;50.488;2.544;2023-07-29T02:38:58;100406.88;;;20.49;64.73
50732;BME280;36700;50.488;2.544;2023-07-29T02:41:24;100394.31;;;20.48;65.06
50732;BME280;36700;50.488;2.544;2023-07-29T02:43:50;100388.31;;;20.45;65.08
50732;BME280;36700;50.488;2.544;2023-07-29T02:46:17;100386.41;;;20.46;64.85
50732;BME280;36700;50.488;2.544;2023-07-29T02:48:44;100397.31;;;20.46;64.74
50732;BME280;36700;50.488;2.544;2023-07-29T02:51:10;100406.88;;;20.43;64.74
50732;BME280;36700;50.488;2.544;2023-07-29T02:53:36;100402.25;;;20.44;65.15
50732;BME280;36700;50.488;2.544;2023-07-29T02:56:05;100389.97;;;20.41;65.03
50732;BME280;36700;50.488;2.544;2023-07-29T02:58:32;100397.06;;;20.42;65.13
50732;BME280;36700;50.488;2.544;2023-07-29T03:01:02;100391.88;;;20.41;64.81
50732;BME280;36700;50.488;2.544;2023-07-29T03:03:29;100380.13;;;20.40;64.87
50732;BME280;36700;50.488;2.544;2023-07-29T03:06:06;100386.41;;;20.41;64.76
50732;BME280;36700;50.488;2.544;2023-07-29T03:08:32;100395.69;;;20.40;64.94
50732;BME280;36700;50.488;2.544;2023-07-29T03:10:58;100385.34;;;20.42;65.13
50732;BME280;36700;50.488;2.544;2023-07-29T03:13:24;100393.78;;;20.40;65.10
50732;BME280;36700;50.488;2.544;2023-07-29T03:15:51;100394.06;;;20.39;65.20
50732;BME280;36700;50.488;2.544;2023-07-29T03:18:17;100383.97;;;20.39;64.96
50732;BME280;36700;50.488;2.544;2023-07-29T03:20:42;100386.97;;;20.38;65.22
50732;BME280;36700;50.488;2.544;2023-07-29T03:23:08;100377.41;;;20.35;65.18
50732;BME280;36700;50.488;2.544;2023-07-29T03:25:34;100377.41;;;20.35;64.70
50732;BME280;36700;50.488;2.544;2023-07-29T03:28:00;100382.59;;;20.37;64.72
50732;BME280;36700;50.488;2.544;2023-07-29T03:30:26;100385.34;;;20.37;65.06
50732;BME280;36700;50.488;2.544;2023-07-29T03:32:52;100386.97;;;20.38;65.01
50732;BME280;36700;50.488;2.544;2023-07-29T03:35:18;100386.97;;;20.38;65.21
50732;BME280;36700;50.488;2.544;2023-07-29T03:37:44;100386.13;;;20.37;64.92
50732;BME280;36700;50.488;2.544;2023-07-29T03:40:11;100382.59;;;20.37;65.21
50732;BME280;36700;50.488;2.544;2023-07-29T03:42:37;100382.88;;;20.35;64.99
50732;BME280;36700;50.488;2.544;2023-07-29T03:45:03;100383.41;;;20.32;65.12
50732;BME280;36700;50.488;2.544;2023-07-29T03:47:29;100381.25;;;20.34;64.81
50732;BME280;36700;50.488;2.544;2023-07-29T03:49:55;100380.69;;;20.32;65.19
50732;BME280;36700;50.488;2.544;2023-07-29T03:52:21;100374.41;;;20.31;65.01
50732;BME280;36700;50.488;2.544;2023-07-29T03:54:47;100372.78;;;20.30;65.13
50732;BME280;36700;50.488;2.544;2023-07-29T03:57:13;100372.78;;;20.30;64.74
50732;BME280;36700;50.488;2.544;2023-07-29T03:59:39;100378.25;;;20.30;65.08
50732;BME280;36700;50.488;2.544;2023-07-29T04:02:05;100384.81;;;20.29;64.78
50732;BME280;36700;50.488;2.544;2023-07-29T04:04:31;100376.03;;;20.27;64.81
50732;BME280;36700;50.488;2.544;2023-07-29T04:06:57;100368.69;;;20.28;65.16
50732;BME280;36700;50.488;2.544;2023-07-29T04:09:23;100371.69;;;20.26;65.04
50732;BME280;36700;50.488;2.544;2023-07-29T04:11:49;100379.88;;;20.26;65.26
50732;BME280;36700;50.488;2.544;2023-07-29T04:14:15;100377.16;;;20.26;65.13
50732;BME280;36700;50.488;2.544;2023-07-29T04:16:41;100379.03;;;20.26;65.02
50732;BME280;36700;50.488;2.544;2023-07-29T04:19:06;100373.59;;;20.26;64.96
50732;BME280;36700;50.488;2.544;2023-07-29T04:21:32;100370.06;;;20.25;65.17
50732;BME280;36700;50.488;2.544;2023-07-29T04:23:58;100374.69;;;20.25;64.84
50732;BME280;36700;50.488;2.544;2023-07-29T04:26:24;100374.16;;;20.23;64.79
50732;BME280;36700;50.488;2.544;2023-07-29T04:28:50;100380.44;;;20.23;64.67
50732;BME280;36700;50.488;2.544;2023-07-29T04:31:16;100371.41;;;20.23;65.16
50732;BME280;36700;50.488;2.544;2023-07-29T04:33:42;100373.31;;;20.22;65.11
50732;BME280;36700;50.488;2.544;2023-07-29T04:36:08;100376.88;;;20.23;64.69
50732;BME280;36700;50.488;2.544;2023-07-29T04:38:34;100372.53;;;20.22;64.99
50732;BME280;36700;50.488;2.544;2023-07-29T04:41:00;100382.34;;;20.23;64.85
50732;BME280;36700;50.488;2.544;2023-07-29T04:43:32;100381.81;;;20.21;64.65
50732;BME280;36700;50.488;2.544;2023-07-29T04:45:58;100381.50;;;20.22;64.59
50732;BME280;36700;50.488;2.544;2023-07-29T04:48:24;100379.06;;;20.21;64.98
50732;BME280;36700;50.488;2.544;2023-07-29T04:50:50;100377.16;;;20.21;65.10
50732;BME280;36700;50.488;2.544;2023-07-29T04:53:16;100377.16;;;20.21;64.85
50732;BME280;36700;50.488;2.544;2023-07-29T04:55:42;100385.34;;;20.21;64.94
50732;BME280;36700;50.488;2.544;2023-07-29T04:58:10;100384.53;;;20.21;64.59
50732;BME280;36700;50.488;2.544;2023-07-29T05:00:36;100385.59;;;20.20;64.63
50732;BME280;36700;50.488;2.544;2023-07-29T05:03:02;100382.88;;;20.20;65.07
50732;BME280;36700;50.488;2.544;2023-07-29T05:05:28;100376.63;;;20.19;65.07
50732;BME280;36700;50.488;2.544;2023-07-29T05:07:54;100376.63;;;20.19;64.51
50732;BME280;36700;50.488;2.544;2023-07-29T05:10:20;100382.88;;;20.20;64.92
50732;BME280;36700;50.488;2.544;2023-07-29T05:12:46;100381.25;;;20.18;65.00
50732;BME280;36700;50.488;2.544;2023-07-29T05:15:12;100381.25;;;20.18;64.86
50732;BME280;36700;50.488;2.544;2023-07-29T05:17:38;100385.06;;;20.17;64.57
50732;BME280;36700;50.488;2.544;2023-07-29T05:20:04;100389.44;;;20.18;64.92
50732;BME280;36700;50.488;2.544;2023-07-29T05:22:30;100386.16;;;20.16;64.87
50732;BME280;36700;50.488;2.544;2023-07-29T05:24:56;100387.53;;;20.19;64.98
50732;BME280;36700;50.488;2.544;2023-07-29T05:27:22;100391.38;;;20.18;65.02
50732;BME280;36700;50.488;2.544;2023-07-29T05:29:48;100386.69;;;20.18;64.51
50732;BME280;36700;50.488;2.544;2023-07-29T05:32:14;100389.44;;;20.18;64.46
50732;BME280;36700;50.488;2.544;2023-07-29T05:34:40;100395.72;;;20.19;64.53
50732;BME280;36700;50.488;2.544;2023-07-29T05:37:06;100394.88;;;20.18;64.31
50732;BME280;36700;50.488;2.544;2023-07-29T05:39:32;100400.91;;;20.21;64.52
50732;BME280;36700;50.488;2.544;2023-07-29T05:41:59;100402.56;;;20.22;64.85
50732;BME280;36700;50.488;2.544;2023-07-29T05:44:24;100396.25;;;20.21;64.81
50732;BME280;36700;50.488;2.544;2023-07-29T05:46:50;100398.19;;;20.21;64.68
50732;BME280;36700;50.488;2.544;2023-07-29T05:49:16;100396.00;;;20.17;64.32
50732;BME280;36700;50.488;2.544;2023-07-29T05:51:42;100390.53;;;20.17;64.82
50732;BME280;36700;50.488;2.544;2023-07-29T05:54:09;100394.34;;;20.16;64.41
50732;BME280;36700;50.488;2.544;2023-07-29T05:56:35;100393.53;;;20.16;64.83
50732;BME280;36700;50.488;2.544;2023-07-29T05:59:01;100390.78;;;20.16;64.69
50732;BME280;36700;50.488;2.544;2023-07-29T06:01:26;100391.63;;;20.16;64.59
50732;BME280;36700;50.488;2.544;2023-07-29T06:03:52;100388.06;;;20.16;64.47
50732;BME280;36700;50.488;2.544;2023-07-29T06:06:18;100375.78;;;20.18;64.46
50732;BME280;36700;50.488;2.544;2023-07-29T06:08:44;100379.06;;;20.21;64.72
50732;BME280;36700;50.488;2.544;2023-07-29T06:11:10;100381.81;;;20.21;64.75
50732;BME280;36700;50.488;2.544;2023-07-29T06:13:36;100373.34;;;20.07;64.97
50732;BME280;36700;50.488;2.544;2023-07-29T06:16:02;100363.22;;;20.12;65.20
50732;BME280;36700;50.488;2.544;2023-07-29T06:18:28;100364.31;;;20.16;64.57
50732;BME280;36700;50.488;2.544;2023-07-29T06:20:54;100370.31;;;20.13;64.49
50732;BME280;36700;50.488;2.544;2023-07-29T06:23:20;100362.97;;;20.14;64.86
50732;BME280;36700;50.488;2.544;2023-07-29T06:25:45;100376.88;;;20.12;64.83
50732;BME280;36700;50.488;2.544;2023-07-29T06:28:11;100377.44;;;20.14;65.00
50732;BME280;36700;50.488;2.544;2023-07-29T06:30:37;100382.91;;;20.14;64.66
50732;BME280;36700;50.488;2.544;2023-07-29T06:33:03;100385.63;;;20.14;65.04
50732;BME280;36700;50.488;2.544;2023-07-29T06:35:29;100390.25;;;20.14;64.97
50732;BME280;36700;50.488;2.544;2023-07-29T06:37:55;100395.44;;;20.15;64.73
50732;BME280;36700;50.488;2.544;2023-07-29T06:40:21;100402.00;;;20.14;64.61
50732;BME280;36700;50.488;2.544;2023-07-29T06:42:47;100411.84;;;20.15;64.72
50732;BME280;36700;50.488;2.544;2023-07-29T06:45:13;100412.09;;;20.14;64.72
50732;BME280;36700;50.488;2.544;2023-07-29T06:47:39;100419.47;;;20.13;65.04
50732;BME280;36700;50.488;2.544;2023-07-29T06:50:05;100408.53;;;20.13;64.60
50732;BME280;36700;50.488;2.544;2023-07-29T06:52:31;100408.28;;;20.15;64.88
50732;BME280;36700;50.488;2.544;2023-07-29T06:54:57;100404.75;;;20.14;65.00
50732;BME280;36700;50.488;2.544;2023-07-29T06:57:23;100412.63;;;20.16;65.00
50732;BME280;36700;50.488;2.544;2023-07-29T06:59:49;100406.91;;;20.17;64.54
50732;BME280;36700;50.488;2.544;2023-07-29T07:02:15;100406.63;;;20.19;64.55
50732;BME280;36700;50.488;2.544;2023-07-29T07:04:40;100403.63;;;20.15;64.87
50732;BME280;36700;50.488;2.544;2023-07-29T07:07:06;100412.63;;;20.16;65.01
50732;BME280;36700;50.488;2.544;2023-07-29T07:09:32;100410.72;;;20.16;64.88
50732;BME280;36700;50.488;2.544;2023-07-29T07:11:58;100415.38;;;20.16;64.53
50732;BME280;36700;50.488;2.544;2023-07-29T07:14:24;100416.47;;;20.15;64.92
50732;BME280;36700;50.488;2.544;2023-07-29T07:16:51;100405.28;;;20.16;65.05
50732;BME280;36700;50.488;2.544;2023-07-29T07:19:17;100406.91;;;20.23;64.82
50732;BME280;36700;50.488;2.544;2023-07-29T07:21:43;100407.19;;;20.21;64.84
50732;BME280;36700;50.488;2.544;2023-07-29T07:24:09;100410.16;;;20.20;64.99
50732;BME280;36700;50.488;2.544;2023-07-29T07:26:34;100409.38;;;20.19;65.13
50732;BME280;36700;50.488;2.544;2023-07-29T07:29:00;100408.81;;;20.17;64.76
50732;BME280;36700;50.488;2.544;2023-07-29T07:31:26;100404.19;;;20.17;64.69
50732;BME280;36700;50.488;2.544;2023-07-29T07:33:52;100411.53;;;20.17;64.69
50732;BME280;36700;50.488;2.544;2023-07-29T07:36:18;100407.75;;;20.18;64.75
50732;BME280;36700;50.488;2.544;2023-07-29T07:38:44;100412.09;;;20.19;64.86
50732;BME280;36700;50.488;2.544;2023-07-29T07:41:11;100413.19;;;20.18;64.70
50732;BME280;36700;50.488;2.544;2023-07-29T07:43:36;100419.72;;;20.17;65.19
50732;BME280;36700;50.488;2.544;2023-07-29T07:46:03;100415.38;;;20.16;64.85
50732;BME280;36700;50.488;2.544;2023-07-29T07:48:29;100404.19;;;20.12;65.24
50732;BME280;36700;50.488;2.544;2023-07-29T07:50:55;100417.56;;;20.14;65.38
50732;BME280;36700;50.488;2.544;2023-07-29T07:53:20;100413.19;;;20.13;65.30
50732;BME280;36700;50.488;2.544;2023-07-29T07:55:46;100406.91;;;20.12;65.31
50732;BME280;36700;50.488;2.544;2023-07-29T07:58:12;100406.09;;;20.12;65.41
50732;BME280;36700;50.488;2.544;2023-07-29T08:00:39;100408.84;;;20.12;65.35
50732;BME280;36700;50.488;2.544;2023-07-29T08:03:05;100415.09;;;20.12;65.23
50732;BME280;36700;50.488;2.544;2023-07-29T08:05:30;100418.91;;;20.11;65.31
50732;BME280;36700;50.488;2.544;2023-07-29T08:07:57;100411.56;;;20.12;65.11
50732;BME280;36700;50.488;2.544;2023-07-29T08:10:24;100411.56;;;20.12;64.96
50732;BME280;36700;50.488;2.544;2023-07-29T08:12:49;100406.91;;;20.12;65.17
50732;BME280;36700;50.488;2.544;2023-07-29T08:15:15;100409.63;;;20.12;65.14
50732;BME280;36700;50.488;2.544;2023-07-29T08:17:41;100418.66;;;20.13;65.11
50732;BME280;36700;50.488;2.544;2023-07-29T08:20:07;100426.84;;;20.13;65.33
50732;BME280;36700;50.488;2.544;2023-07-29T08:22:33;100428.75;;;20.12;65.30
50732;BME280;36700;50.488;2.544;2023-07-29T08:24:59;100426.84;;;20.13;65.08
50732;BME280;36700;50.488;2.544;2023-07-29T08:27:25;100426.28;;;20.11;65.74
50732;BME280;36700;50.488;2.544;2023-07-29T08:29:51;100430.94;;;20.10;65.26
50732;BME280;36700;50.488;2.544;2023-07-29T08:32:19;100432.03;;;20.09;65.45
50732;BME280;36700;50.488;2.544;2023-07-29T08:34:45;100429.56;;;20.13;65.64
50732;BME280;36700;50.488;2.544;2023-07-29T08:37:10;100433.94;;;20.14;65.72
50732;BME280;36700;50.488;2.544;2023-07-29T08:39:36;100432.31;;;20.13;65.42
50732;BME280;36700;50.488;2.544;2023-07-29T08:42:07;100426.28;;;20.11;65.70
50732;BME280;36700;50.488;2.544;2023-07-29T08:44:40;100430.38;;;20.13;65.28
50732;BME280;36700;50.488;2.544;2023-07-29T08:47:06;100425.47;;;20.15;65.66
50732;BME280;36700;50.488;2.544;2023-07-29T08:49:33;100426.00;;;20.17;65.43
50732;BME280;36700;50.488;2.544;2023-07-29T08:51:59;100433.09;;;20.18;65.43
50732;BME280;36700;50.488;2.544;2023-07-29T08:54:26;100437.47;;;20.25;65.19
50732;BME280;36700;50.488;2.544;2023-07-29T08:56:52;100432.00;;;20.25;65.50
50732;BME280;36700;50.488;2.544;2023-07-29T08:59:19;100432.59;;;20.27;65.33
50732;BME280;36700;50.488;2.544;2023-07-29T09:01:45;100436.69;;;20.24;65.18
50732;BME280;36700;50.488;2.544;2023-07-29T09:04:12;100437.47;;;20.25;65.36
50732;BME280;36700;50.488;2.544;2023-07-29T09:06:39;100444.88;;;20.24;65.82
50732;BME280;36700;50.488;2.544;2023-07-29T09:09:07;100443.75;;;20.20;65.49
50732;BME280;36700;50.488;2.544;2023-07-29T09:11:33;100448.38;;;20.20;65.86
50732;BME280;36700;50.488;2.544;2023-07-29T09:13:59;100444.28;;;20.17;65.77
50732;BME280;36700;50.488;2.544;2023-07-29T09:16:25;100453.59;;;20.16;66.08
50732;BME280;36700;50.488;2.544;2023-07-29T09:18:52;100448.13;;;20.16;65.83
50732;BME280;36700;50.488;2.544;2023-07-29T09:21:23;100447.31;;;20.15;66.26
50732;BME280;36700;50.488;2.544;2023-07-29T09:23:50;100444.03;;;20.13;66.24
50732;BME280;36700;50.488;2.544;2023-07-29T09:28:57;100445.13;;;20.17;65.94
50732;BME280;36700;50.488;2.544;2023-07-29T09:31:25;100440.19;;;20.20;66.40
50732;BME280;36700;50.488;2.544;2023-07-29T09:33:58;100435.56;;;20.20;66.00
50732;BME280;36700;50.488;2.544;2023-07-29T09:36:26;100438.56;;;20.24;66.01
50732;BME280;36700;50.488;2.544;2023-07-29T09:38:53;100441.84;;;20.26;65.58
50732;BME280;36700;50.488;2.544;2023-07-29T09:41:31;100436.38;;;20.26;66.17
50732;BME280;36700;50.488;2.544;2023-07-29T09:44:02;100439.94;;;20.26;65.70
50732;BME280;36700;50.488;2.544;2023-07-29T09:46:33;100440.78;;;20.27;65.80
50732;BME280;36700;50.488;2.544;2023-07-29T09:49:02;100436.69;;;20.29;65.73
50732;BME280;36700;50.488;2.544;2023-07-29T09:51:28;100433.66;;;20.31;66.14
50732;BME280;36700;50.488;2.544;2023-07-29T09:53:54;100432.56;;;20.32;65.89
50732;BME280;36700;50.488;2.544;2023-07-29T09:56:25;100424.09;;;20.34;66.02
50732;BME280;36700;50.488;2.544;2023-07-29T09:58:52;100431.19;;;20.35;65.61
50732;BME280;36700;50.488;2.544;2023-07-29T10:01:18;100431.75;;;20.31;65.69
50732;BME280;36700;50.488;2.544;2023-07-29T10:03:44;100428.75;;;20.33;66.07
50732;BME280;36700;50.488;2.544;2023-07-29T10:06:11;100439.69;;;20.33;65.76
50732;BME280;36700;50.488;2.544;2023-07-29T10:08:39;100437.22;;;20.37;66.11
50732;BME280;36700;50.488;2.544;2023-07-29T10:11:06;100430.91;;;20.36;66.15
50732;BME280;36700;50.488;2.544;2023-07-29T10:13:33;100440.75;;;20.37;65.72
50732;BME280;36700;50.488;2.544;2023-07-29T10:15:59;100448.41;;;20.35;66.07
50732;BME280;36700;50.488;2.544;2023-07-29T10:18:28;100442.41;;;20.33;66.38
50732;BME280;36700;50.488;2.544;2023-07-29T10:20:57;100442.94;;;20.35;66.21
50732;BME280;36700;50.488;2.544;2023-07-29T10:23:25;100430.38;;;20.34;66.11
50732;BME280;36700;50.488;2.544;2023-07-29T10:26:05;100431.19;;;20.35;66.31
50732;BME280;36700;50.488;2.544;2023-07-29T10:28:32;100437.75;;;20.34;66.18
50732;BME280;36700;50.488;2.544;2023-07-29T10:31:00;100428.47;;;20.35;66.54
50732;BME280;36700;50.488;2.544;2023-07-29T10:33:26;100428.47;;;20.35;66.72
50732;BME280;36700;50.488;2.544;2023-07-29T10:35:55;100425.72;;;20.35;66.10
50732;BME280;36700;50.488;2.544;2023-07-29T10:38:22;100423.00;;;20.35;66.10
50732;BME280;36700;50.488;2.544;2023-07-29T10:40:56;100426.81;;;20.34;66.50
50732;BME280;36700;50.488;2.544;2023-07-29T10:43:34;100425.19;;;20.33;66.44
50732;BME280;36700;50.488;2.544;2023-07-29T10:46:16;100415.63;;;20.35;66.22
50732;BME280;36700;50.488;2.544;2023-07-29T10:48:44;100426.56;;;20.35;66.61
50732;BME280;36700;50.488;2.544;2023-07-29T10:51:39;100429.56;;;20.34;66.52
50732;BME280;36700;50.488;2.544;2023-07-29T10:54:13;100429.56;;;20.34;66.33
50732;BME280;36700;50.488;2.544;2023-07-29T10:56:42;100427.66;;;20.34;66.72
50732;BME280;36700;50.488;2.544;2023-07-29T11:01:39;100425.72;;;20.35;66.92
50732;BME280;36700;50.488;2.544;2023-07-29T11:09:52;100436.13;;;20.33;66.58
50732;BME280;36700;50.488;2.544;2023-07-29T11:12:47;100449.78;;;20.33;67.06
50732;BME280;36700;50.488;2.544;2023-07-29T11:15:14;100460.69;;;20.33;66.67
50732;BME280;36700;50.488;2.544;2023-07-29T11:17:57;100459.06;;;20.31;67.13
50732;BME280;36700;50.488;2.544;2023-07-29T11:20:25;100453.59;;;20.31;66.72
50732;BME280;36700;50.488;2.544;2023-07-29T11:22:53;100447.31;;;20.31;66.73
50732;BME280;36700;50.488;2.544;2023-07-29T11:25:21;100432.56;;;20.32;67.25
50732;BME280;36700;50.488;2.544;2023-07-29T11:27:48;100425.72;;;20.35;66.93
50732;BME280;36700;50.488;2.544;2023-07-29T11:30:15;100437.47;;;20.35;67.00
50732;BME280;36700;50.488;2.544;2023-07-29T11:32:42;100440.22;;;20.35;66.93
50732;BME280;36700;50.488;2.544;2023-07-29T11:35:16;100439.13;;;20.36;66.98
50732;BME280;36700;50.488;2.544;2023-07-29T11:37:47;100441.84;;;20.36;66.90
50732;BME280;36700;50.488;2.544;2023-07-29T11:40:19;100441.03;;;20.36;66.68
50732;BME280;36700;50.488;2.544;2023-07-29T11:42:47;100441.84;;;20.36;66.85
50732;BME280;36700;50.488;2.544;2023-07-29T11:45:14;100445.13;;;20.38;67.13
50732;BME280;36700;50.488;2.544;2023-07-29T11:47:40;100445.41;;;20.37;67.05
50732;BME280;36700;50.488;2.544;2023-07-29T11:50:08;100442.94;;;20.35;67.13
50732;BME280;36700;50.488;2.544;2023-07-29T11:52:41;100451.13;;;20.35;67.22
50732;BME280;36700;50.488;2.544;2023-07-29T11:55:08;100446.50;;;20.36;67.10
50732;BME280;36700;50.488;2.544;2023-07-29T11:57:36;100447.56;;;20.35;67.33
50732;BME280;36700;50.488;2.544;2023-07-29T12:00:04;100444.03;;;20.34;67.23
50732;BME280;36700;50.488;2.544;2023-07-29T12:02:33;100442.94;;;20.35;67.40
50732;BME280;36700;50.488;2.544;2023-07-29T12:05:03;100443.47;;;20.32;67.33
50732;BME280;36700;50.488;2.544;2023-07-29T12:07:30;100453.34;;;20.33;67.78
50732;BME280;36700;50.488;2.544;2023-07-29T12:09:56;100463.97;;;20.35;67.20
50732;BME280;36700;50.488;2.544;2023-07-29T12:12:23;100466.97;;;20.33;67.78
50732;BME280;36700;50.488;2.544;2023-07-29T12:14:49;100464.25;;;20.33;67.37
50732;BME280;36700;50.488;2.544;2023-07-29T12:17:15;100457.69;;;20.34;67.72
50732;BME280;36700;50.488;2.544;2023-07-29T12:19:42;100454.69;;;20.36;67.88
50732;BME280;36700;50.488;2.544;2023-07-29T12:22:09;100449.50;;;20.29;67.66
50732;BME280;36700;50.488;2.544;2023-07-29T12:24:38;100460.44;;;20.34;67.63
50732;BME280;36700;50.488;2.544;2023-07-29T12:27:05;100451.66;;;20.37;67.37
50732;BME280;36700;50.488;2.544;2023-07-29T12:29:31;100462.06;;;20.35;67.32
50732;BME280;36700;50.488;2.544;2023-07-29T12:31:59;100465.63;;;20.36;67.73
50732;BME280;36700;50.488;2.544;2023-07-29T12:34:27;100464.78;;;20.35;67.94
50732;BME280;36700;50.488;2.544;2023-07-29T12:36:58;100475.97;;;20.34;67.80
50732;BME280;36700;50.488;2.544;2023-07-29T12:39:26;100479.53;;;20.34;67.75
50732;BME280;36700;50.488;2.544;2023-07-29T12:41:54;100478.72;;;20.34;68.24
50732;BME280;36700;50.488;2.544;2023-07-29T12:44:22;100482.28;;;20.34;67.74
50732;BME280;36700;50.488;2.544;2023-07-29T12:46:48;100481.19;;;20.35;67.96
50732;BME280;36700;50.488;2.544;2023-07-29T12:49:15;100472.97;;;20.35;67.97
50732;BME280;36700;50.488;2.544;2023-07-29T12:51:41;100493.47;;;20.38;68.24
50732;BME280;36700;50.488;2.544;2023-07-29T12:54:07;100489.09;;;20.37;67.92
50732;BME280;36700;50.488;2.544;2023-07-29T12:56:33;100489.91;;;20.37;68.24
50732;BME280;36700;50.488;2.544;2023-07-29T12:59:00;100503.84;;;20.36;67.71
50732;BME280;36700;50.488;2.544;2023-07-29T13:01:26;100502.19;;;20.35;67.95
50732;BME280;36700;50.488;2.544;2023-07-29T13:03:53;100487.16;;;20.37;68.21
50732;BME280;36700;50.488;2.544;2023-07-29T13:06:19;100478.44;;;20.35;68.12